Kettle Falls, Washington
Current Conditions -  °F | °C
As of 10:43 AM on Sunday 23 Nov 2014 (Local Time) from KDEW Reporting Station
Overcast Overcast  
Wind Chill:   Ceiling: 1100
Heat Index:   Visibility: 9mi
Dew Point:   Wind: 3mph
Humidity: 96%   Direction: 140°SE
Pressure: 30.06"   Gusts: NA
Location:  48.61°N, 118.06°W
Report Text: KDEW 231843Z AUTO 14003KT 9SM OVC011 01/01 A3006 RMK AO2 T00110006
Loading
Personal Weather Stations






























Interactive Weather Map New forecast layout! Learn more

10-Day Weather Forecast

Advertisements
Track Severe Weather on mobile